Time;durP1;ratioP1;P1;durP2;ratioP2;P2;SDS_P1;SDS_P2;PMS_P1;PMS_P2;Temp;Humidity;BMP_temperature;BMP_pressure;BME280_temperature;BME280_humidity;BME280_pressure;Samples;Min_cycle;Max_cycle;Signal;HPM_P1;HPM_P2
2023/10/12 00:01:57;;;;;;;7.33;4.33;;;21.60;63.80;;;;;;5090750;28;20300;-64
2023/10/12 00:04:28;;;;;;;10.07;4.37;;;21.70;63.70;;;;;;5090682;28;20192;-63
2023/10/12 00:06:54;;;;;;;9.43;4.23;;;21.70;63.60;;;;;;5091010;28;20216;-64
2023/10/12 00:09:25;;;;;;;6.97;4.10;;;21.60;63.70;;;;;;5090863;28;20204;-63
2023/10/12 00:11:57;;;;;;;8.97;4.33;;;21.60;63.80;;;;;;5080104;28;20270;-63
2023/10/12 00:14:30;;;;;;;7.30;3.90;;;21.70;63.60;;;;;;5090790;28;20211;-64
2023/10/12 00:16:57;;;;;;;6.00;4.17;;;21.80;63.40;;;;;;5090490;28;20648;-64
2023/10/12 00:19:24;;;;;;;6.70;4.33;;;21.90;63.10;;;;;;5090634;28;20211;-64
2023/10/12 00:21:56;;;;;;;8.53;5.00;;;21.90;63.80;;;;;;5054783;28;20201;-64
2023/10/12 00:24:23;;;;;;;7.43;4.30;;;21.90;62.80;;;;;;5089848;28;20252;-65
2023/10/12 00:26:51;;;;;;;5.33;4.30;;;21.90;63.50;;;;;;5090032;28;20198;-64
2023/10/12 00:29:19;;;;;;;7.73;4.33;;;22.00;62.70;;;;;;5091194;28;20556;-63
2023/10/12 00:31:50;;;;;;;7.67;4.17;;;22.00;62.60;;;;;;5090536;28;20252;-63
2023/10/12 00:34:23;;;;;;;8.27;4.40;;;22.00;62.50;;;;;;5090544;28;20779;-64
2023/10/12 00:36:53;;;;;;;5.63;4.00;;;22.00;62.40;;;;;;5090277;28;20281;-63
2023/10/12 00:39:27;;;;;;;9.63;4.57;;;22.00;62.40;;;;;;5090043;28;20228;-64
2023/10/12 00:41:55;;;;;;;6.27;4.00;;;22.00;62.30;;;;;;5090281;28;20200;-64
2023/10/12 00:44:29;;;;;;;6.53;4.40;;;22.00;62.20;;;;;;5091206;28;20700;-63
2023/10/12 00:47:07;;;;;;;7.27;4.13;;;22.00;62.20;;;;;;5093577;28;20273;-63
2023/10/12 00:49:39;;;;;;;6.87;4.17;;;22.00;62.20;;;;;;5094595;28;20200;-63
2023/10/12 00:52:14;;;;;;;6.80;4.47;;;22.00;62.90;;;;;;5094586;28;20640;-63
2023/10/12 00:54:49;;;;;;;5.77;4.03;;;21.90;62.00;;;;;;5093980;28;20223;-63
2023/10/12 00:57:16;;;;;;;5.77;4.27;;;21.90;62.00;;;;;;5059540;28;20222;-64
2023/10/12 00:59:46;;;;;;;6.47;4.00;;;21.90;62.00;;;;;;5094102;28;20197;-64
2023/10/12 01:02:17;;;;;;;6.43;4.37;;;21.90;62.00;;;;;;5097814;28;20256;-63
2023/10/12 01:04:48;;;;;;;6.67;3.77;;;21.90;62.00;;;;;;5100126;28;20214;-64
2023/10/12 01:07:25;;;;;;;8.27;4.00;;;21.90;62.00;;;;;;5101035;28;20224;-64
2023/10/12 01:09:54;;;;;;;4.50;3.83;;;21.90;62.00;;;;;;5100321;28;20204;-64
2023/10/12 01:12:30;;;;;;;6.53;4.23;;;21.90;62.00;;;;;;5093211;28;20288;-64
2023/10/12 01:14:56;;;;;;;5.93;4.17;;;21.80;61.90;;;;;;5098250;28;20204;-64
2023/10/12 01:17:29;;;;;;;4.87;4.33;;;21.90;62.00;;;;;;5100647;28;20216;-64
2023/10/12 01:19:56;;;;;;;5.47;4.10;;;21.90;62.00;;;;;;5100628;28;20221;-64
2023/10/12 01:22:27;;;;;;;6.13;3.90;;;21.90;61.90;;;;;;5099230;28;20204;-64
2023/10/12 01:25:10;;;;;;;6.80;4.00;;;21.90;62.00;;;;;;5094469;28;20278;-64
2023/10/12 01:27:41;;;;;;;7.10;3.70;;;21.80;62.00;;;;;;5073597;28;20247;-64
2023/10/12 01:30:14;;;;;;;5.83;4.10;;;21.80;62.20;;;;;;5078007;28;20220;-64
2023/10/12 01:32:41;;;;;;;9.13;4.83;;;21.80;62.50;;;;;;5093660;28;20200;-64
2023/10/12 01:35:11;;;;;;;5.77;4.27;;;21.70;62.60;;;;;;5093804;28;20227;-64
2023/10/12 01:37:48;;;;;;;9.03;4.73;;;21.70;62.70;;;;;;5093154;28;20335;-64
2023/10/12 01:40:21;;;;;;;7.33;4.03;;;21.70;62.90;;;;;;5093171;28;20230;-64
2023/10/12 01:42:50;;;;;;;8.07;4.43;;;21.70;62.90;;;;;;5092800;28;20189;-64
2023/10/12 01:45:24;;;;;;;8.40;4.63;;;21.70;62.90;;;;;;5092755;28;20192;-64
2023/10/12 01:47:57;;;;;;;5.30;4.03;;;21.70;63.00;;;;;;5092684;28;20220;-64
2023/10/12 01:50:25;;;;;;;7.67;3.90;;;21.70;63.00;;;;;;5092608;28;20196;-64
2023/10/12 01:52:56;;;;;;;10.60;4.53;;;21.70;62.90;;;;;;5092993;28;20282;-64
2023/10/12 01:55:29;;;;;;;9.63;4.40;;;21.70;62.90;;;;;;5092643;28;20239;-64
2023/10/12 01:57:55;;;;;;;9.23;4.30;;;21.70;63.00;;;;;;5092265;28;20281;-64
2023/10/12 02:00:28;;;;;;;5.00;4.13;;;21.70;62.70;;;;;;5092142;28;20695;-64
2023/10/12 02:03:06;;;;;;;7.00;4.20;;;21.80;62.60;;;;;;5092553;28;20200;-64
2023/10/12 02:05:34;;;;;;;6.10;3.70;;;21.70;62.50;;;;;;5093015;28;20208;-64
2023/10/12 02:08:05;;;;;;;5.57;4.30;;;21.80;62.60;;;;;;5092441;28;20541;-64
2023/10/12 02:10:43;;;;;;;6.97;4.20;;;21.80;62.50;;;;;;5092777;28;20201;-63
2023/10/12 02:13:10;;;;;;;8.63;3.93;;;21.90;63.30;;;;;;5092211;28;20224;-63
2023/10/12 02:15:38;;;;;;;8.37;4.33;;;21.90;62.50;;;;;;5092470;28;20253;-63
2023/10/12 02:18:11;;;;;;;5.87;4.27;;;21.80;62.50;;;;;;5092461;28;20216;-63
2023/10/12 02:20:47;;;;;;;4.33;3.93;;;21.90;62.70;;;;;;5091105;28;20216;-63
2023/10/12 02:23:16;;;;;;;5.50;4.30;;;21.80;62.60;;;;;;5081634;28;20660;-64
2023/10/12 02:25:50;;;;;;;8.73;4.93;;;21.90;62.60;;;;;;5092077;28;20220;-63
2023/10/12 02:28:22;;;;;;;6.60;4.57;;;22.00;62.40;;;;;;5091620;28;20200;-64
2023/10/12 02:30:53;;;;;;;6.60;4.30;;;21.90;62.40;;;;;;5092425;28;20204;-64
2023/10/12 02:33:24;;;;;;;6.70;4.40;;;22.00;62.50;;;;;;5092244;28;20232;-64
2023/10/12 02:35:51;;;;;;;6.73;3.80;;;22.00;62.40;;;;;;5092185;28;20277;-64
2023/10/12 02:38:21;;;;;;;7.47;4.10;;;22.00;62.30;;;;;;5091274;28;20216;-63
2023/10/12 02:40:57;;;;;;;4.97;4.00;;;22.00;62.30;;;;;;5091611;28;20265;-64
2023/10/12 02:43:27;;;;;;;6.60;3.97;;;22.00;62.10;;;;;;5092150;28;20211;-64
2023/10/12 02:45:58;;;;;;;6.50;5.00;;;22.00;62.20;;;;;;5092052;28;20595;-64
2023/10/12 02:48:26;;;;;;;6.27;3.90;;;22.00;63.10;;;;;;5092469;28;20652;-64
2023/10/12 02:51:06;;;;;;;6.70;4.27;;;22.00;62.40;;;;;;5099045;28;20281;-64
2023/10/12 02:53:35;;;;;;;7.60;4.10;;;22.00;62.40;;;;;;5108921;28;20231;-64
2023/10/12 02:56:02;;;;;;;6.47;4.37;;;22.00;62.30;;;;;;5108699;28;20226;-64
2023/10/12 02:58:29;;;;;;;6.57;4.43;;;22.00;62.10;;;;;;5109656;28;20737;-63
2023/10/12 03:01:12;;;;;;;6.33;4.57;;;22.10;62.00;;;;;;5106505;28;20246;-63
2023/10/12 03:03:39;;;;;;;6.87;4.20;;;22.10;61.80;;;;;;5110509;28;20213;-64
2023/10/12 03:06:08;;;;;;;7.57;4.07;;;22.00;61.60;;;;;;5098161;28;20208;-64
2023/10/12 03:09:01;;;;;;;5.77;4.43;;;22.10;61.80;;;;;;5091493;28;20249;-64
2023/10/12 03:11:28;;;;;;;4.90;4.00;;;22.10;61.70;;;;;;5071607;28;20699;-64
2023/10/12 03:14:00;;;;;;;5.40;3.90;;;22.10;61.50;;;;;;5088563;28;20201;-63
2023/10/12 03:16:33;;;;;;;7.93;4.70;;;22.10;61.60;;;;;;5091842;28;20208;-64
2023/10/12 03:19:17;;;;;;;7.13;4.73;;;22.10;61.50;;;;;;5091561;28;20648;-64
2023/10/12 03:21:46;;;;;;;5.87;3.73;;;22.20;61.20;;;;;;5091730;28;20204;-64
2023/10/12 03:24:15;;;;;;;4.57;4.03;;;22.20;61.00;;;;;;5091253;28;20780;-64
2023/10/12 03:26:48;;;;;;;7.90;4.20;;;22.20;60.80;;;;;;5091837;28;20201;-64
2023/10/12 03:29:19;;;;;;;7.70;4.47;;;22.20;60.90;;;;;;5091198;28;20220;-63
2023/10/12 03:31:55;;;;;;;5.87;3.70;;;22.20;60.80;;;;;;5091111;28;20293;-63
2023/10/12 03:34:35;;;;;;;6.23;4.00;;;22.30;60.80;;;;;;5091565;28;20298;-63
2023/10/12 03:37:18;;;;;;;6.87;4.17;;;22.30;60.80;;;;;;5071669;28;20209;-64
2023/10/12 03:39:59;;;;;;;6.10;4.17;;;22.30;60.50;;;;;;5079667;28;20220;-64
2023/10/12 03:45:23;;;;;;;7.63;4.07;;;22.30;60.50;;;;;;5091382;28;20203;-63
2023/10/12 03:48:03;;;;;;;7.27;3.80;;;22.30;60.50;;;;;;5091526;28;20200;-63
2023/10/12 03:50:53;;;;;;;6.13;3.73;;;22.30;60.20;;;;;;5091246;28;20204;-63
2023/10/12 03:53:23;;;;;;;6.87;3.90;;;22.30;60.10;;;;;;5090735;28;20209;-64
2023/10/12 03:55:57;;;;;;;4.83;3.97;;;22.30;60.20;;;;;;5089788;28;20224;-64
2023/10/12 03:58:24;;;;;;;7.57;4.30;;;22.30;60.00;;;;;;5088776;28;20220;-64
2023/10/12 04:01:10;;;;;;;6.07;3.90;;;22.30;59.90;;;;;;5091351;28;20207;-64
2023/10/12 04:03:40;;;;;;;5.63;4.30;;;22.30;59.90;;;;;;5090875;28;20224;-64
2023/10/12 04:06:23;;;;;;;5.83;3.97;;;22.30;59.80;;;;;;5092346;28;20575;-64
2023/10/12 04:08:51;;;;;;;8.87;4.60;;;22.30;60.00;;;;;;5090646;28;20211;-64
2023/10/12 04:14:43;;;;;;;10.33;4.57;;;22.30;59.80;;;;;;5091074;28;20204;-63
2023/10/12 04:17:19;;;;;;;8.97;4.27;;;22.30;59.90;;;;;;5090974;28;20234;-63
2023/10/12 04:20:12;;;;;;;6.17;3.97;;;22.30;59.90;;;;;;5093653;28;20219;-64
2023/10/12 04:23:04;;;;;;;6.60;4.73;;;22.30;59.80;;;;;;5073654;28;20232;-64
2023/10/12 04:25:33;;;;;;;7.53;5.17;;;22.30;59.90;;;;;;5090399;28;20695;-64
2023/10/12 04:28:16;;;;;;;5.57;4.00;;;22.40;59.70;;;;;;5094905;28;20290;-63
2023/10/12 04:31:20;;;;;;;6.97;4.10;;;22.40;59.80;;;;;;5091681;28;20207;-63
2023/10/12 04:33:43;;;;;;;5.43;4.00;;;22.40;59.60;;;;;;5077621;28;20245;-64
2023/10/12 04:36:25;;;;;;;7.53;4.30;;;22.40;59.60;;;;;;5094499;28;20306;-64
2023/10/12 04:39:03;;;;;;;6.60;4.00;;;22.40;59.60;;;;;;5093862;28;20265;-65
2023/10/12 04:41:41;;;;;;;6.03;4.67;;;22.50;59.60;;;;;;5094489;28;20677;-64
2023/10/12 04:46:58;;;;;;;6.13;4.17;;;22.50;59.50;;;;;;5094385;28;20231;-63
2023/10/12 04:52:17;;;;;;;5.67;3.93;;;22.50;59.50;;;;;;5094227;28;20801;-64
2023/10/12 04:55:06;;;;;;;6.60;4.10;;;22.60;59.60;;;;;;5093811;28;20220;-63
2023/10/12 04:57:34;;;;;;;7.90;4.73;;;22.60;59.50;;;;;;5094524;28;20227;-63
2023/10/12 05:00:11;;;;;;;6.87;4.47;;;22.60;59.40;;;;;;5094301;28;20212;-63
2023/10/12 05:02:55;;;;;;;9.33;4.60;;;22.70;59.60;;;;;;5094404;28;20904;-62
2023/10/12 05:08:09;;;;;;;7.20;4.10;;;22.60;59.70;;;;;;5094030;28;20223;-63
2023/10/12 05:10:46;;;;;;;6.53;4.13;;;22.60;59.70;;;;;;5093952;28;20204;-64
2023/10/12 05:13:23;;;;;;;5.93;3.80;;;22.50;60.70;;;;;;5057849;28;20196;-63
2023/10/12 05:15:54;;;;;;;5.30;4.23;;;22.40;60.10;;;;;;5093702;28;20231;-63
2023/10/12 05:18:23;;;;;;;7.90;4.53;;;22.40;60.40;;;;;;5093800;28;20220;-63
2023/10/12 05:20:50;;;;;;;5.10;4.07;;;22.30;60.60;;;;;;5093040;28;20319;-63
2023/10/12 05:23:17;;;;;;;4.83;4.43;;;22.30;61.00;;;;;;5074592;28;20679;-63
2023/10/12 05:26:07;;;;;;;6.97;4.83;;;22.20;61.20;;;;;;5093260;28;20220;-64
2023/10/12 05:28:37;;;;;;;8.40;4.60;;;22.10;61.40;;;;;;5093511;28;20231;-64
2023/10/12 05:31:13;;;;;;;6.77;4.10;;;22.00;61.90;;;;;;5092775;28;20207;-64
2023/10/12 05:33:43;;;;;;;7.97;4.53;;;21.90;62.00;;;;;;5093530;28;20211;-63
2023/10/12 05:36:11;;;;;;;7.03;4.90;;;21.90;62.40;;;;;;5092920;28;20208;-64
2023/10/12 05:38:40;;;;;;;7.50;4.97;;;21.90;62.50;;;;;;5093142;28;20258;-63
2023/10/12 05:41:09;;;;;;;6.97;5.23;;;21.80;62.60;;;;;;5082357;28;20285;-64
2023/10/12 05:43:39;;;;;;;5.83;4.63;;;21.70;62.90;;;;;;5092870;28;20204;-64
2023/10/12 05:46:14;;;;;;;5.87;4.50;;;21.60;63.00;;;;;;5093061;28;20208;-63
2023/10/12 05:48:45;;;;;;;6.63;4.57;;;21.60;63.50;;;;;;5093299;28;20219;-63
2023/10/12 05:51:13;;;;;;;7.03;4.80;;;21.60;63.40;;;;;;5092812;28;20738;-63
2023/10/12 05:53:40;;;;;;;5.10;4.30;;;21.60;63.60;;;;;;5092591;28;20207;-64
2023/10/12 05:56:07;;;;;;;5.83;4.57;;;21.60;63.80;;;;;;5092639;28;20197;-63
2023/10/12 05:58:38;;;;;;;6.83;4.57;;;21.50;63.70;;;;;;5092397;28;20220;-64
2023/10/12 06:01:09;;;;;;;10.63;4.90;;;21.50;64.20;;;;;;5092234;28;20224;-64
2023/10/12 06:03:39;;;;;;;7.67;4.73;;;21.50;64.00;;;;;;5092776;28;20197;-64
2023/10/12 06:06:09;;;;;;;7.33;4.80;;;21.50;64.10;;;;;;5092916;28;20236;-64
2023/10/12 06:08:37;;;;;;;6.07;4.80;;;21.50;64.30;;;;;;5092877;28;20319;-64
2023/10/12 06:11:07;;;;;;;7.43;5.07;;;21.50;64.50;;;;;;5089180;28;20237;-64
2023/10/12 06:13:41;;;;;;;5.53;4.20;;;21.50;64.50;;;;;;5093802;28;20213;-65
2023/10/12 06:16:14;;;;;;;8.03;4.90;;;21.50;64.50;;;;;;5091924;28;20202;-65
2023/10/12 06:18:44;;;;;;;7.00;5.00;;;21.50;65.00;;;;;;5091602;28;20224;-69
2023/10/12 06:21:17;;;;;;;6.27;4.97;;;21.50;65.40;;;;;;5092098;28;20228;-70
2023/10/12 06:23:45;;;;;;;6.07;4.17;;;21.50;65.70;;;;;;5091641;28;20251;-65
2023/10/12 06:26:17;;;;;;;7.50;4.40;;;21.50;65.90;;;;;;5092279;28;20231;-64
2023/10/12 06:28:44;;;;;;;6.93;5.20;;;21.50;66.00;;;;;;5092649;28;20655;-65
2023/10/12 06:31:14;;;;;;;7.00;5.70;;;21.50;66.40;;;;;;5091912;28;20201;-65
2023/10/12 06:33:42;;;;;;;7.50;4.77;;;21.50;66.70;;;;;;5091267;28;20200;-64
2023/10/12 06:36:16;;;;;;;6.87;5.23;;;21.60;66.40;;;;;;5091161;28;20628;-64
2023/10/12 06:39:02;;;;;;;8.00;5.77;;;21.60;66.70;;;;;;5091482;28;20193;-64
2023/10/12 06:41:29;;;;;;;6.03;4.83;;;21.60;66.20;;;;;;5089531;28;20232;-64
2023/10/12 06:43:59;;;;;;;6.80;4.50;;;21.70;66.70;;;;;;5071380;28;20205;-64
2023/10/12 06:46:27;;;;;;;13.63;5.33;;;21.70;66.70;;;;;;5084303;28;20196;-65
2023/10/12 06:49:00;;;;;;;7.23;4.80;;;21.70;66.60;;;;;;5088795;28;20242;-64
2023/10/12 06:51:28;;;;;;;6.40;4.80;;;21.70;66.20;;;;;;5090711;28;20208;-64
2023/10/12 06:54:06;;;;;;;7.83;4.37;;;21.70;66.40;;;;;;5089926;28;20588;-64
2023/10/12 06:56:38;;;;;;;7.17;4.50;;;21.80;66.80;;;;;;5090518;28;20471;-64
2023/10/12 06:59:11;;;;;;;6.57;4.33;;;21.80;68.00;;;;;;5056575;28;20220;-64
2023/10/12 07:01:51;;;;;;;6.43;4.43;;;21.90;67.50;;;;;;5090324;28;20235;-63
2023/10/12 07:04:21;;;;;;;7.70;4.87;;;21.90;67.70;;;;;;5091241;28;20214;-64
2023/10/12 07:06:56;;;;;;;7.63;5.33;;;21.90;67.90;;;;;;5089790;28;20228;-65
2023/10/12 07:09:27;;;;;;;8.47;5.60;;;21.90;68.60;;;;;;5090354;28;20192;-64
2023/10/12 07:11:54;;;;;;;6.77;4.60;;;21.90;68.20;;;;;;5085533;28;20205;-65
2023/10/12 07:14:30;;;;;;;7.40;5.10;;;21.90;68.70;;;;;;5077030;28;20247;-65
2023/10/12 07:17:01;;;;;;;6.03;4.77;;;22.00;68.50;;;;;;5090394;28;20210;-64
2023/10/12 07:19:28;;;;;;;8.37;4.80;;;22.00;68.00;;;;;;5089742;28;20220;-64
2023/10/12 07:21:55;;;;;;;7.00;4.67;;;22.10;68.40;;;;;;5089928;28;20727;-64
2023/10/12 07:24:23;;;;;;;6.90;4.57;;;22.10;68.60;;;;;;5090699;28;20339;-64
2023/10/12 07:26:50;;;;;;;7.43;4.37;;;22.10;68.50;;;;;;5089647;28;20224;-64
2023/10/12 07:29:35;;;;;;;8.90;5.20;;;22.20;68.20;;;;;;5091540;28;20298;-64
2023/10/12 07:32:09;;;;;;;7.57;4.67;;;22.20;68.40;;;;;;5089669;28;20200;-64
2023/10/12 07:34:36;;;;;;;7.67;5.07;;;22.20;68.50;;;;;;5089920;28;20228;-64
2023/10/12 07:37:05;;;;;;;6.87;4.80;;;22.30;68.50;;;;;;5090555;28;20205;-64
2023/10/12 07:39:42;;;;;;;7.13;5.00;;;22.30;68.70;;;;;;5090706;28;20212;-65
2023/10/12 07:42:12;;;;;;;10.63;6.33;;;22.30;68.80;;;;;;5091241;28;20208;-64
2023/10/12 07:44:42;;;;;;;10.07;5.50;;;22.40;68.90;;;;;;5091160;28;20203;-64
2023/10/12 07:47:18;;;;;;;8.73;6.10;;;22.40;68.70;;;;;;5090399;28;20270;-65
2023/10/12 07:49:50;;;;;;;6.43;5.40;;;22.50;68.60;;;;;;5091204;28;20609;-65
2023/10/12 07:52:33;;;;;;;9.17;6.20;;;22.50;68.60;;;;;;5091276;28;20208;-65
2023/10/12 07:55:04;;;;;;;7.30;5.37;;;22.60;69.30;;;;;;5094057;28;20227;-65
2023/10/12 07:57:31;;;;;;;6.93;5.37;;;22.70;68.50;;;;;;5095483;28;20212;-64
2023/10/12 08:00:29;;;;;;;7.47;4.73;;;22.70;68.20;;;;;;5094258;28;20314;-64
2023/10/12 08:05:46;;;;;;;13.57;5.43;;;22.80;67.60;;;;;;5093844;28;20230;-65
2023/10/12 08:08:33;;;;;;;8.20;4.70;;;22.90;67.70;;;;;;5092099;28;20271;-63
2023/10/12 08:11:08;;;;;;;10.13;4.77;;;22.90;67.30;;;;;;5095241;28;20195;-65
2023/10/12 08:13:39;;;;;;;8.23;5.17;;;22.90;67.00;;;;;;5095086;28;20235;-64
2023/10/12 08:16:14;;;;;;;6.57;4.43;;;23.00;66.50;;;;;;5093150;28;20200;-64
2023/10/12 08:21:38;;;;;;;8.80;4.80;;;23.10;66.80;;;;;;5094202;28;20608;-65
2023/10/12 08:24:09;;;;;;;10.07;5.10;;;23.20;66.20;;;;;;5094492;28;20642;-64
2023/10/12 08:26:49;;;;;;;10.23;4.87;;;23.30;66.20;;;;;;5094017;28;20603;-64
2023/10/12 08:32:12;;;;;;;9.63;5.13;;;23.30;66.30;;;;;;5093383;28;20230;-65
2023/10/12 08:35:10;;;;;;;10.27;5.13;;;23.40;65.40;;;;;;5094327;28;20204;-64
2023/10/12 08:37:36;;;;;;;6.97;5.17;;;23.40;65.80;;;;;;5094567;28;20236;-65
2023/10/12 08:42:55;;;;;;;7.03;5.00;;;23.50;65.00;;;;;;5094199;28;20200;-65
2023/10/12 08:45:24;;;;;;;11.20;5.07;;;23.60;64.70;;;;;;5094603;28;20271;-65
2023/10/12 08:47:54;;;;;;;9.17;5.07;;;23.70;64.70;;;;;;5094451;28;20286;-64
2023/10/12 08:53:09;;;;;;;8.73;5.53;;;23.80;64.90;;;;;;5094366;28;20207;-64
2023/10/12 08:55:37;;;;;;;12.10;5.90;;;23.90;64.50;;;;;;5094279;28;20682;-63
2023/10/12 08:58:25;;;;;;;9.73;5.20;;;24.00;64.30;;;;;;5093694;28;20201;-64
2023/10/12 09:03:38;;;;;;;6.17;4.23;;;24.10;63.30;;;;;;5094148;28;20205;-65
2023/10/12 09:06:20;;;;;;;5.60;4.47;;;24.00;59.80;;;;;;5092937;28;20204;-64
2023/10/12 09:08:46;;;;;;;8.43;4.50;;;24.10;59.80;;;;;;5094118;28;20235;-64
2023/10/12 09:11:19;;;;;;;6.83;4.50;;;24.20;59.30;;;;;;5093569;28;20200;-65
2023/10/12 09:13:45;;;;;;;5.90;4.50;;;24.30;59.20;;;;;;5093195;28;20204;-65
2023/10/12 09:16:14;;;;;;;6.73;4.77;;;24.40;58.80;;;;;;5093877;28;20253;-64
2023/10/12 09:18:46;;;;;;;8.53;4.53;;;24.40;57.90;;;;;;5093545;28;20672;-63
2023/10/12 09:21:28;;;;;;;6.30;4.83;;;24.50;57.80;;;;;;5093646;28;20231;-64
2023/10/12 09:24:14;;;;;;;8.23;4.63;;;24.60;58.00;;;;;;5093859;28;20236;-65
2023/10/12 09:26:47;;;;;;;7.37;5.03;;;24.60;57.60;;;;;;5073603;28;20243;-64
2023/10/12 09:29:22;;;;;;;8.00;4.97;;;24.70;57.30;;;;;;5082856;28;20544;-65
2023/10/12 09:32:12;;;;;;;8.03;4.57;;;24.80;57.20;;;;;;5093434;28;20207;-64
2023/10/12 09:35:03;;;;;;;6.80;4.63;;;24.80;57.00;;;;;;5093318;28;20670;-65
2023/10/12 09:37:43;;;;;;;8.00;4.60;;;24.90;56.40;;;;;;5093429;28;20192;-65
2023/10/12 09:40:24;;;;;;;9.50;4.97;;;24.90;56.60;;;;;;5093424;28;20232;-64
2023/10/12 09:42:55;;;;;;;7.63;4.40;;;25.00;56.40;;;;;;5092989;28;20215;-64
2023/10/12 09:45:24;;;;;;;6.83;4.87;;;25.10;56.30;;;;;;5092902;28;20228;-65
2023/10/12 09:47:57;;;;;;;7.33;5.00;;;25.10;56.10;;;;;;5093232;28;20204;-65
2023/10/12 09:50:32;;;;;;;9.10;5.20;;;25.20;55.80;;;;;;5092142;28;20204;-64
2023/10/12 09:53:13;;;;;;;7.40;4.70;;;25.30;55.90;;;;;;5082472;28;20630;-64
2023/10/12 09:55:54;;;;;;;6.87;4.70;;;25.50;55.50;;;;;;5091284;28;20251;-65
2023/10/12 09:58:23;;;;;;;6.50;4.57;;;25.60;55.60;;;;;;5091858;28;20238;-64
2023/10/12 10:01:01;;;;;;;9.13;5.37;;;25.80;55.50;;;;;;5091623;28;20220;-65
2023/10/12 10:03:35;;;;;;;7.27;4.87;;;26.00;54.90;;;;;;5091426;28;20746;-63
2023/10/12 10:06:19;;;;;;;7.33;5.40;;;26.00;54.50;;;;;;5092118;28;20610;-64
2023/10/12 10:09:04;;;;;;;6.30;4.87;;;26.00;54.30;;;;;;5092553;28;20219;-64
2023/10/12 10:11:32;;;;;;;9.43;5.10;;;26.00;54.50;;;;;;5092011;28;20232;-63
2023/10/12 10:13:59;;;;;;;7.80;5.17;;;26.00;54.40;;;;;;5092342;28;20212;-65
2023/10/12 10:16:37;;;;;;;7.93;4.80;;;25.90;53.70;;;;;;5091986;28;20219;-64
2023/10/12 10:19:13;;;;;;;8.20;4.83;;;26.00;54.40;;;;;;5092389;28;20235;-63
2023/10/12 10:21:49;;;;;;;7.00;5.43;;;26.10;53.50;;;;;;5092056;28;20216;-64
2023/10/12 10:24:24;;;;;;;9.90;5.40;;;26.10;53.60;;;;;;5091495;28;20237;-65
2023/10/12 10:26:57;;;;;;;10.97;5.27;;;26.00;53.60;;;;;;5092107;28;20246;-64
2023/10/12 10:29:39;;;;;;;8.27;5.17;;;26.10;54.20;;;;;;5093365;28;20209;-64
2023/10/12 10:32:07;;;;;;;7.90;4.80;;;26.10;53.30;;;;;;5092021;28;20208;-63
2023/10/12 10:34:34;;;;;;;8.27;4.80;;;26.10;53.20;;;;;;5091566;28;20232;-64
2023/10/12 10:37:04;;;;;;;7.70;4.63;;;26.10;53.90;;;;;;5091845;28;20232;-64
2023/10/12 10:39:32;;;;;;;5.27;4.53;;;26.10;54.10;;;;;;5091214;28;20200;-64
2023/10/12 10:42:04;;;;;;;8.87;4.83;;;26.20;54.50;;;;;;5090354;28;20691;-63
2023/10/12 10:44:41;;;;;;;9.80;5.37;;;26.20;53.60;;;;;;5091508;28;20242;-63
2023/10/12 10:47:10;;;;;;;8.13;5.53;;;26.20;53.80;;;;;;5091798;28;20241;-64
2023/10/12 10:49:37;;;;;;;8.57;5.40;;;26.10;53.80;;;;;;5091951;28;20314;-65
2023/10/12 10:52:15;;;;;;;7.67;4.73;;;26.10;54.00;;;;;;5091650;28;20204;-64
2023/10/12 10:54:56;;;;;;;7.13;4.90;;;26.10;53.80;;;;;;5090800;28;20204;-64
2023/10/12 10:57:32;;;;;;;6.27;4.90;;;26.10;54.10;;;;;;5091162;28;20751;-63
2023/10/12 11:00:10;;;;;;;10.17;5.07;;;26.00;54.30;;;;;;5091616;28;20229;-64
2023/10/12 11:02:38;;;;;;;6.00;4.70;;;25.90;54.40;;;;;;5091408;28;20227;-63
2023/10/12 11:05:10;;;;;;;6.37;4.80;;;25.90;54.50;;;;;;5091159;28;20224;-65
2023/10/12 11:07:38;;;;;;;8.17;5.10;;;25.90;54.60;;;;;;5091040;28;20255;-65
2023/10/12 11:10:08;;;;;;;7.30;4.80;;;25.90;54.60;;;;;;5090848;28;20184;-65
2023/10/12 11:12:36;;;;;;;8.10;4.97;;;25.90;54.60;;;;;;5091463;28;20204;-64
2023/10/12 11:15:07;;;;;;;8.20;4.80;;;25.90;54.40;;;;;;5091347;28;20642;-64
2023/10/12 11:17:40;;;;;;;7.63;4.70;;;25.80;54.60;;;;;;5091143;28;20686;-64
2023/10/12 11:20:26;;;;;;;7.87;4.90;;;25.90;55.30;;;;;;5090783;28;20231;-64
2023/10/12 11:22:53;;;;;;;6.50;5.17;;;25.90;53.80;;;;;;5070366;28;20756;-64
2023/10/12 11:25:21;;;;;;;8.73;5.13;;;25.80;54.30;;;;;;5070401;28;20236;-64
2023/10/12 11:27:51;;;;;;;7.10;5.00;;;25.90;54.50;;;;;;5070734;28;20229;-64
2023/10/12 11:30:29;;;;;;;8.97;4.93;;;26.00;54.50;;;;;;5070645;28;20201;-64
2023/10/12 11:32:58;;;;;;;6.93;4.93;;;25.90;53.90;;;;;;5070972;28;20259;-64
2023/10/12 11:35:37;;;;;;;8.87;5.03;;;25.90;53.80;;;;;;5089736;28;20203;-64
2023/10/12 11:38:04;;;;;;;6.43;4.73;;;25.80;53.90;;;;;;5090192;28;20692;-64
2023/10/12 11:40:32;;;;;;;7.67;4.70;;;25.90;54.30;;;;;;5090555;28;20232;-64
2023/10/12 11:42:59;;;;;;;6.13;4.80;;;25.90;54.30;;;;;;5090532;28;20215;-64
2023/10/12 11:45:33;;;;;;;8.03;5.20;;;26.00;54.10;;;;;;5091247;28;20196;-65
2023/10/12 11:48:21;;;;;;;9.40;4.77;;;26.00;53.80;;;;;;5090506;28;20571;-64
2023/10/12 11:50:49;;;;;;;8.67;4.77;;;26.10;53.80;;;;;;5090308;28;20198;-64
2023/10/12 11:53:17;;;;;;;7.20;5.43;;;26.10;53.80;;;;;;5090013;28;20228;-64
2023/10/12 11:55:48;;;;;;;8.83;4.90;;;26.00;53.80;;;;;;5090614;28;20208;-64
2023/10/12 11:58:19;;;;;;;9.00;5.40;;;26.00;53.70;;;;;;5090709;28;20200;-64
2023/10/12 12:00:50;;;;;;;7.10;5.03;;;26.00;53.60;;;;;;5090327;28;20220;-64
2023/10/12 12:03:17;;;;;;;9.17;4.57;;;26.00;53.60;;;;;;5096639;28;20212;-64
2023/10/12 12:05:50;;;;;;;6.80;4.67;;;26.00;53.40;;;;;;5110187;28;20245;-64
2023/10/12 12:08:18;;;;;;;5.93;5.07;;;25.80;53.60;;;;;;5111500;28;20204;-64
2023/10/12 12:10:54;;;;;;;9.37;4.70;;;25.80;54.10;;;;;;5106068;28;20200;-63
2023/10/12 12:13:23;;;;;;;11.63;5.30;;;25.90;54.20;;;;;;5098453;28;20711;-63
2023/10/12 12:15:53;;;;;;;5.97;4.53;;;25.80;54.00;;;;;;5095651;28;20219;-63
2023/10/12 12:18:20;;;;;;;8.07;5.07;;;25.90;54.10;;;;;;5093906;28;20228;-63
2023/10/12 12:20:48;;;;;;;7.23;5.20;;;25.90;54.20;;;;;;5090347;28;20216;-64
2023/10/12 12:23:15;;;;;;;7.57;5.30;;;25.90;53.90;;;;;;5090418;28;20209;-65
2023/10/12 12:25:42;;;;;;;6.73;4.60;;;25.80;53.90;;;;;;5090323;28;20719;-65
2023/10/12 12:28:14;;;;;;;7.87;5.30;;;25.80;53.90;;;;;;5090246;28;20204;-64
2023/10/12 12:30:46;;;;;;;6.17;4.67;;;25.80;54.10;;;;;;5090142;28;20270;-64
2023/10/12 12:33:15;;;;;;;9.73;5.27;;;25.90;53.80;;;;;;5090364;28;20303;-64
2023/10/12 12:35:45;;;;;;;10.57;5.63;;;26.00;53.80;;;;;;5055043;28;20216;-65
2023/10/12 12:38:33;;;;;;;7.10;5.17;;;26.00;53.80;;;;;;5090180;28;20600;-64
2023/10/12 12:41:05;;;;;;;8.17;5.03;;;26.00;53.80;;;;;;5093178;28;20228;-65
2023/10/12 12:43:34;;;;;;;8.67;5.33;;;25.80;53.60;;;;;;5094128;28;20228;-65
2023/10/12 12:46:01;;;;;;;7.37;5.27;;;25.90;53.90;;;;;;5094020;28;20358;-64
2023/10/12 12:48:28;;;;;;;6.70;4.70;;;25.90;53.70;;;;;;5094395;28;20660;-64
2023/10/12 12:50:55;;;;;;;8.50;4.97;;;26.00;53.80;;;;;;5093700;28;20311;-64
2023/10/12 12:53:22;;;;;;;7.80;5.40;;;26.00;53.80;;;;;;5093594;28;20215;-65
2023/10/12 12:55:49;;;;;;;7.30;5.03;;;25.90;53.70;;;;;;5093560;28;20309;-65
2023/10/12 12:58:18;;;;;;;8.47;5.27;;;25.90;53.90;;;;;;5094059;28;20430;-64
2023/10/12 13:00:47;;;;;;;7.00;4.80;;;26.00;53.90;;;;;;5093527;28;20266;-65
2023/10/12 13:03:14;;;;;;;7.93;5.63;;;26.00;53.80;;;;;;5093749;28;20237;-64
2023/10/12 13:05:41;;;;;;;6.93;4.73;;;26.00;53.70;;;;;;5093115;28;20307;-64
2023/10/12 13:08:11;;;;;;;6.27;5.00;;;25.90;53.80;;;;;;5093516;28;20215;-64
2023/10/12 13:10:38;;;;;;;5.40;4.77;;;26.00;53.80;;;;;;5093098;28;20667;-64
2023/10/12 13:13:05;;;;;;;10.50;5.00;;;25.90;53.70;;;;;;5091525;28;20288;-64
2023/10/12 13:15:41;;;;;;;6.13;4.70;;;25.90;53.70;;;;;;5093559;28;20236;-64
2023/10/12 13:18:14;;;;;;;8.70;5.33;;;26.00;53.80;;;;;;5093316;28;20202;-64
2023/10/12 13:20:46;;;;;;;9.70;4.77;;;26.00;53.40;;;;;;5092729;28;20221;-65
2023/10/12 13:23:15;;;;;;;6.83;4.77;;;26.00;53.50;;;;;;5093255;28;20205;-65
2023/10/12 13:25:42;;;;;;;8.23;5.00;;;26.10;53.60;;;;;;5093205;28;20224;-65
2023/10/12 13:28:10;;;;;;;8.63;5.30;;;26.20;53.20;;;;;;5093335;28;20487;-65
2023/10/12 13:30:37;;;;;;;5.63;4.63;;;26.30;53.10;;;;;;5092985;28;20240;-64
2023/10/12 13:33:05;;;;;;;8.10;5.30;;;26.30;53.10;;;;;;5093193;28;20209;-64
2023/10/12 13:35:41;;;;;;;8.20;5.23;;;26.30;52.90;;;;;;5092597;28;20227;-64
2023/10/12 13:38:10;;;;;;;6.93;5.60;;;26.40;52.80;;;;;;5093126;28;20208;-64
2023/10/12 13:40:38;;;;;;;9.83;5.37;;;26.50;52.70;;;;;;5092786;28;20260;-65
2023/10/12 13:43:14;;;;;;;6.33;4.43;;;26.60;52.10;;;;;;5092817;28;20213;-64
2023/10/12 13:45:47;;;;;;;8.93;5.10;;;26.50;52.40;;;;;;5093968;28;20201;-64